sensor_id;sensor_type;location;lat;lon;timestamp;temperature;humidity
29341;DHT22;16337;59.536;13.468;2023-04-06T00:01:40;0.10;99.90
29341;DHT22;16337;59.536;13.468;2023-04-06T00:04:06;0.10;99.90
29341;DHT22;16337;59.536;13.468;2023-04-06T00:06:32;0.00;99.90
29341;DHT22;16337;59.536;13.468;2023-04-06T00:08:59;0.10;99.90
29341;DHT22;16337;59.536;13.468;2023-04-06T00:11:25;0.10;99.90
29341;DHT22;16337;59.536;13.468;2023-04-06T00:13:51;0.10;99.90
29341;DHT22;16337;59.536;13.468;2023-04-06T00:16:17;0.10;99.90
29341;DHT22;16337;59.536;13.468;2023-04-06T00:18:44;0.20;99.90
29341;DHT22;16337;59.536;13.468;2023-04-06T00:21:13;0.20;99.90
29341;DHT22;16337;59.536;13.468;2023-04-06T00:23:40;0.20;99.90
29341;DHT22;16337;59.536;13.468;2023-04-06T00:26:07;0.20;99.90
29341;DHT22;16337;59.536;13.468;2023-04-06T00:28:33;0.20;99.90
29341;DHT22;16337;59.536;13.468;2023-04-06T00:30:59;0.20;99.90
29341;DHT22;16337;59.536;13.468;2023-04-06T00:33:25;0.20;99.90
29341;DHT22;16337;59.536;13.468;2023-04-06T00:35:51;0.20;99.90
29341;DHT22;16337;59.536;13.468;2023-04-06T00:38:17;0.20;99.90
29341;DHT22;16337;59.536;13.468;2023-04-06T00:40:43;0.10;99.90
29341;DHT22;16337;59.536;13.468;2023-04-06T00:43:12;0.20;99.90
29341;DHT22;16337;59.536;13.468;2023-04-06T00:45:39;0.20;99.90
29341;DHT22;16337;59.536;13.468;2023-04-06T00:48:05;0.20;99.90
29341;DHT22;16337;59.536;13.468;2023-04-06T00:50:31;0.20;99.90
29341;DHT22;16337;59.536;13.468;2023-04-06T00:52:58;0.20;99.90
29341;DHT22;16337;59.536;13.468;2023-04-06T00:55:24;0.20;99.90
29341;DHT22;16337;59.536;13.468;2023-04-06T00:57:50;0.20;99.90
29341;DHT22;16337;59.536;13.468;2023-04-06T01:00:17;0.20;99.90
29341;DHT22;16337;59.536;13.468;2023-04-06T01:02:43;0.20;99.90
29341;DHT22;16337;59.536;13.468;2023-04-06T01:05:13;0.20;99.90
29341;DHT22;16337;59.536;13.468;2023-04-06T01:07:39;0.30;99.90
29341;DHT22;16337;59.536;13.468;2023-04-06T01:10:31;0.30;99.90
29341;DHT22;16337;59.536;13.468;2023-04-06T01:12:57;0.30;99.90
29341;DHT22;16337;59.536;13.468;2023-04-06T01:15:27;0.30;99.90
29341;DHT22;16337;59.536;13.468;2023-04-06T01:17:54;0.20;99.90
29341;DHT22;16337;59.536;13.468;2023-04-06T01:20:51;0.20;99.90
29341;DHT22;16337;59.536;13.468;2023-04-06T01:23:17;0.20;99.90
29341;DHT22;16337;59.536;13.468;2023-04-06T01:25:42;0.30;99.90
29341;DHT22;16337;59.536;13.468;2023-04-06T01:28:11;0.20;99.90
29341;DHT22;16337;59.536;13.468;2023-04-06T01:30:37;0.30;99.90
29341;DHT22;16337;59.536;13.468;2023-04-06T01:33:08;0.30;99.90
29341;DHT22;16337;59.536;13.468;2023-04-06T01:35:34;0.30;99.90
29341;DHT22;16337;59.536;13.468;2023-04-06T01:38:16;0.30;99.90
29341;DHT22;16337;59.536;13.468;2023-04-06T01:40:42;0.30;99.90
29341;DHT22;16337;59.536;13.468;2023-04-06T01:43:08;0.40;99.90
29341;DHT22;16337;59.536;13.468;2023-04-06T01:45:33;0.30;99.90
29341;DHT22;16337;59.536;13.468;2023-04-06T01:47:59;0.30;99.90
29341;DHT22;16337;59.536;13.468;2023-04-06T01:50:28;0.30;99.90
29341;DHT22;16337;59.536;13.468;2023-04-06T01:52:54;0.30;99.90
29341;DHT22;16337;59.536;13.468;2023-04-06T01:55:23;0.30;99.90
29341;DHT22;16337;59.536;13.468;2023-04-06T01:58:13;0.40;99.90
29341;DHT22;16337;59.536;13.468;2023-04-06T02:03:48;0.30;99.90
29341;DHT22;16337;59.536;13.468;2023-04-06T02:06:15;0.30;99.90
29341;DHT22;16337;59.536;13.468;2023-04-06T02:08:40;0.30;99.90
29341;DHT22;16337;59.536;13.468;2023-04-06T02:11:12;0.30;99.90
29341;DHT22;16337;59.536;13.468;2023-04-06T02:13:41;0.40;99.90
29341;DHT22;16337;59.536;13.468;2023-04-06T02:16:10;0.40;99.90
29341;DHT22;16337;59.536;13.468;2023-04-06T02:18:39;0.40;99.90
29341;DHT22;16337;59.536;13.468;2023-04-06T02:21:08;0.40;99.90
29341;DHT22;16337;59.536;13.468;2023-04-06T02:23:45;0.40;99.90
29341;DHT22;16337;59.536;13.468;2023-04-06T02:26:18;0.40;99.90
29341;DHT22;16337;59.536;13.468;2023-04-06T02:28:46;0.40;99.90
29341;DHT22;16337;59.536;13.468;2023-04-06T02:31:38;0.40;99.90
29341;DHT22;16337;59.536;13.468;2023-04-06T02:34:04;0.30;99.90
29341;DHT22;16337;59.536;13.468;2023-04-06T02:36:39;0.30;99.90
29341;DHT22;16337;59.536;13.468;2023-04-06T02:39:17;0.30;99.90
29341;DHT22;16337;59.536;13.468;2023-04-06T02:41:43;0.30;99.90
29341;DHT22;16337;59.536;13.468;2023-04-06T02:44:08;0.30;99.90
29341;DHT22;16337;59.536;13.468;2023-04-06T02:46:43;0.30;99.90
29341;DHT22;16337;59.536;13.468;2023-04-06T02:49:21;0.30;99.90
29341;DHT22;16337;59.536;13.468;2023-04-06T02:51:56;0.20;99.90
29341;DHT22;16337;59.536;13.468;2023-04-06T02:54:25;0.20;99.90
29341;DHT22;16337;59.536;13.468;2023-04-06T03:00:04;0.20;99.90
29341;DHT22;16337;59.536;13.468;2023-04-06T03:02:36;0.20;99.90
29341;DHT22;16337;59.536;13.468;2023-04-06T03:05:40;0.20;99.90
29341;DHT22;16337;59.536;13.468;2023-04-06T03:08:14;0.20;99.90
29341;DHT22;16337;59.536;13.468;2023-04-06T03:10:43;0.20;99.90
29341;DHT22;16337;59.536;13.468;2023-04-06T03:13:11;0.30;99.90
29341;DHT22;16337;59.536;13.468;2023-04-06T03:15:37;0.30;99.90
29341;DHT22;16337;59.536;13.468;2023-04-06T03:18:03;0.30;99.90
29341;DHT22;16337;59.536;13.468;2023-04-06T03:20:29;0.20;99.90
29341;DHT22;16337;59.536;13.468;2023-04-06T03:22:55;0.30;99.90
29341;DHT22;16337;59.536;13.468;2023-04-06T03:25:21;0.20;99.90
29341;DHT22;16337;59.536;13.468;2023-04-06T03:27:47;0.20;99.90
29341;DHT22;16337;59.536;13.468;2023-04-06T03:30:13;0.20;99.90
29341;DHT22;16337;59.536;13.468;2023-04-06T03:32:38;0.20;99.90
29341;DHT22;16337;59.536;13.468;2023-04-06T03:35:07;0.10;99.90
29341;DHT22;16337;59.536;13.468;2023-04-06T03:37:36;0.20;99.90
29341;DHT22;16337;59.536;13.468;2023-04-06T03:40:05;0.10;99.90
29341;DHT22;16337;59.536;13.468;2023-04-06T03:42:32;0.20;99.90
29341;DHT22;16337;59.536;13.468;2023-04-06T03:44:58;0.20;99.90
29341;DHT22;16337;59.536;13.468;2023-04-06T03:47:40;0.20;99.90
29341;DHT22;16337;59.536;13.468;2023-04-06T03:50:06;0.30;99.90
29341;DHT22;16337;59.536;13.468;2023-04-06T03:52:32;0.30;99.90
29341;DHT22;16337;59.536;13.468;2023-04-06T03:55:01;0.30;99.90
29341;DHT22;16337;59.536;13.468;2023-04-06T03:57:49;0.20;99.90
29341;DHT22;16337;59.536;13.468;2023-04-06T04:00:15;0.20;99.90
29341;DHT22;16337;59.536;13.468;2023-04-06T04:02:41;0.20;99.90
29341;DHT22;16337;59.536;13.468;2023-04-06T04:05:22;0.20;99.90
29341;DHT22;16337;59.536;13.468;2023-04-06T04:07:51;0.20;99.90
29341;DHT22;16337;59.536;13.468;2023-04-06T04:10:17;0.30;99.90
29341;DHT22;16337;59.536;13.468;2023-04-06T04:12:43;0.30;99.90
29341;DHT22;16337;59.536;13.468;2023-04-06T04:15:09;0.30;99.90
29341;DHT22;16337;59.536;13.468;2023-04-06T04:17:35;0.30;99.90
29341;DHT22;16337;59.536;13.468;2023-04-06T04:20:01;0.30;99.90
29341;DHT22;16337;59.536;13.468;2023-04-06T04:22:27;0.20;99.90
29341;DHT22;16337;59.536;13.468;2023-04-06T04:24:56;0.20;99.90
29341;DHT22;16337;59.536;13.468;2023-04-06T04:27:22;0.20;99.90
29341;DHT22;16337;59.536;13.468;2023-04-06T04:29:47;0.20;99.90
29341;DHT22;16337;59.536;13.468;2023-04-06T04:32:13;0.30;99.90
29341;DHT22;16337;59.536;13.468;2023-04-06T04:34:39;0.30;99.90
29341;DHT22;16337;59.536;13.468;2023-04-06T04:37:08;0.30;99.90
29341;DHT22;16337;59.536;13.468;2023-04-06T04:39:33;0.40;99.90
29341;DHT22;16337;59.536;13.468;2023-04-06T04:41:59;0.30;99.90
29341;DHT22;16337;59.536;13.468;2023-04-06T04:44:28;0.30;99.90
29341;DHT22;16337;59.536;13.468;2023-04-06T04:46:54;0.30;99.90
29341;DHT22;16337;59.536;13.468;2023-04-06T04:49:20;0.30;99.90
29341;DHT22;16337;59.536;13.468;2023-04-06T04:51:46;0.30;99.90
29341;DHT22;16337;59.536;13.468;2023-04-06T04:54:11;0.40;99.90
29341;DHT22;16337;59.536;13.468;2023-04-06T04:56:37;0.40;99.90
29341;DHT22;16337;59.536;13.468;2023-04-06T04:59:03;0.50;99.90
29341;DHT22;16337;59.536;13.468;2023-04-06T05:01:28;0.50;99.90
29341;DHT22;16337;59.536;13.468;2023-04-06T05:03:54;0.50;99.90
29341;DHT22;16337;59.536;13.468;2023-04-06T05:06:20;0.60;99.90
29341;DHT22;16337;59.536;13.468;2023-04-06T05:08:46;0.60;99.90
29341;DHT22;16337;59.536;13.468;2023-04-06T05:11:12;0.60;99.90
29341;DHT22;16337;59.536;13.468;2023-04-06T05:13:38;0.60;99.90
29341;DHT22;16337;59.536;13.468;2023-04-06T05:16:04;0.60;99.90
29341;DHT22;16337;59.536;13.468;2023-04-06T05:18:30;0.70;99.90
29341;DHT22;16337;59.536;13.468;2023-04-06T05:20:58;0.70;99.90
29341;DHT22;16337;59.536;13.468;2023-04-06T05:23:24;0.70;99.90
29341;DHT22;16337;59.536;13.468;2023-04-06T05:25:50;0.70;99.90
29341;DHT22;16337;59.536;13.468;2023-04-06T05:28:16;0.80;99.90
29341;DHT22;16337;59.536;13.468;2023-04-06T05:30:43;0.80;99.90
29341;DHT22;16337;59.536;13.468;2023-04-06T05:33:12;0.80;99.90
29341;DHT22;16337;59.536;13.468;2023-04-06T05:35:38;0.80;99.90
29341;DHT22;16337;59.536;13.468;2023-04-06T05:38:07;0.80;99.90
29341;DHT22;16337;59.536;13.468;2023-04-06T05:40:33;0.90;99.90
29341;DHT22;16337;59.536;13.468;2023-04-06T05:42:59;0.90;99.90
29341;DHT22;16337;59.536;13.468;2023-04-06T05:45:25;1.00;99.90
29341;DHT22;16337;59.536;13.468;2023-04-06T05:47:50;1.00;99.90
29341;DHT22;16337;59.536;13.468;2023-04-06T05:50:16;1.00;99.90
29341;DHT22;16337;59.536;13.468;2023-04-06T05:52:42;1.00;99.90
29341;DHT22;16337;59.536;13.468;2023-04-06T05:55:11;1.00;99.90
29341;DHT22;16337;59.536;13.468;2023-04-06T05:57:36;1.00;99.90
29341;DHT22;16337;59.536;13.468;2023-04-06T06:00:03;1.00;99.90
29341;DHT22;16337;59.536;13.468;2023-04-06T06:02:30;1.10;99.90
29341;DHT22;16337;59.536;13.468;2023-04-06T06:04:57;1.10;99.90
29341;DHT22;16337;59.536;13.468;2023-04-06T06:07:23;1.20;99.90
29341;DHT22;16337;59.536;13.468;2023-04-06T06:09:49;1.20;99.90
29341;DHT22;16337;59.536;13.468;2023-04-06T06:12:15;1.30;99.90
29341;DHT22;16337;59.536;13.468;2023-04-06T06:14:41;1.20;99.90
29341;DHT22;16337;59.536;13.468;2023-04-06T06:17:08;1.30;99.90
29341;DHT22;16337;59.536;13.468;2023-04-06T06:19:34;1.30;99.90
29341;DHT22;16337;59.536;13.468;2023-04-06T06:22:00;1.30;99.90
29341;DHT22;16337;59.536;13.468;2023-04-06T06:24:28;1.40;99.90
29341;DHT22;16337;59.536;13.468;2023-04-06T06:26:56;1.50;99.90
29341;DHT22;16337;59.536;13.468;2023-04-06T06:29:22;1.50;99.90
29341;DHT22;16337;59.536;13.468;2023-04-06T06:31:49;1.50;99.90
29341;DHT22;16337;59.536;13.468;2023-04-06T06:34:15;1.50;99.90
29341;DHT22;16337;59.536;13.468;2023-04-06T06:36:41;1.50;99.90
29341;DHT22;16337;59.536;13.468;2023-04-06T06:39:06;1.40;99.90
29341;DHT22;16337;59.536;13.468;2023-04-06T06:41:32;1.30;99.90
29341;DHT22;16337;59.536;13.468;2023-04-06T06:43:58;1.20;99.90
29341;DHT22;16337;59.536;13.468;2023-04-06T06:46:27;1.10;99.90
29341;DHT22;16337;59.536;13.468;2023-04-06T06:48:52;1.10;99.90
29341;DHT22;16337;59.536;13.468;2023-04-06T06:51:18;1.10;99.90
29341;DHT22;16337;59.536;13.468;2023-04-06T06:53:44;1.10;99.90
29341;DHT22;16337;59.536;13.468;2023-04-06T06:56:10;1.10;99.90
29341;DHT22;16337;59.536;13.468;2023-04-06T06:58:38;1.10;99.90
29341;DHT22;16337;59.536;13.468;2023-04-06T07:01:04;1.00;99.90
29341;DHT22;16337;59.536;13.468;2023-04-06T07:03:30;1.10;99.90
29341;DHT22;16337;59.536;13.468;2023-04-06T07:05:59;1.10;99.90
29341;DHT22;16337;59.536;13.468;2023-04-06T07:08:25;1.20;99.90
29341;DHT22;16337;59.536;13.468;2023-04-06T07:10:52;1.20;99.90
29341;DHT22;16337;59.536;13.468;2023-04-06T07:13:19;1.20;99.90
29341;DHT22;16337;59.536;13.468;2023-04-06T07:15:51;1.20;99.90
29341;DHT22;16337;59.536;13.468;2023-04-06T07:18:17;1.20;99.90
29341;DHT22;16337;59.536;13.468;2023-04-06T07:20:43;1.20;99.90
29341;DHT22;16337;59.536;13.468;2023-04-06T07:23:10;1.20;99.90
29341;DHT22;16337;59.536;13.468;2023-04-06T07:25:35;1.20;99.90
29341;DHT22;16337;59.536;13.468;2023-04-06T07:28:02;1.20;99.90
29341;DHT22;16337;59.536;13.468;2023-04-06T07:30:28;1.20;99.90
29341;DHT22;16337;59.536;13.468;2023-04-06T07:32:54;1.20;99.90
29341;DHT22;16337;59.536;13.468;2023-04-06T07:35:25;1.20;99.90
29341;DHT22;16337;59.536;13.468;2023-04-06T07:37:57;1.20;99.90
29341;DHT22;16337;59.536;13.468;2023-04-06T07:40:23;1.20;99.90
29341;DHT22;16337;59.536;13.468;2023-04-06T07:42:49;1.20;99.90
29341;DHT22;16337;59.536;13.468;2023-04-06T07:45:15;1.20;99.90
29341;DHT22;16337;59.536;13.468;2023-04-06T07:47:42;1.20;99.90
29341;DHT22;16337;59.536;13.468;2023-04-06T07:50:08;1.20;99.90
29341;DHT22;16337;59.536;13.468;2023-04-06T07:52:34;1.20;99.90
29341;DHT22;16337;59.536;13.468;2023-04-06T07:55:00;1.20;99.90
29341;DHT22;16337;59.536;13.468;2023-04-06T07:57:25;1.10;99.90
29341;DHT22;16337;59.536;13.468;2023-04-06T07:59:51;1.20;99.90
29341;DHT22;16337;59.536;13.468;2023-04-06T08:02:18;1.20;99.90
29341;DHT22;16337;59.536;13.468;2023-04-06T08:04:44;1.30;99.90
29341;DHT22;16337;59.536;13.468;2023-04-06T08:07:10;1.20;99.90
29341;DHT22;16337;59.536;13.468;2023-04-06T08:09:36;1.20;99.90
29341;DHT22;16337;59.536;13.468;2023-04-06T08:12:02;1.20;99.90
29341;DHT22;16337;59.536;13.468;2023-04-06T08:14:27;1.10;99.90
29341;DHT22;16337;59.536;13.468;2023-04-06T08:16:53;1.20;99.90
29341;DHT22;16337;59.536;13.468;2023-04-06T08:19:22;1.10;99.90
29341;DHT22;16337;59.536;13.468;2023-04-06T08:21:48;1.20;99.90
29341;DHT22;16337;59.536;13.468;2023-04-06T08:24:14;1.20;99.90
29341;DHT22;16337;59.536;13.468;2023-04-06T08:26:40;1.30;99.90
29341;DHT22;16337;59.536;13.468;2023-04-06T08:29:09;1.40;99.90
29341;DHT22;16337;59.536;13.468;2023-04-06T08:31:35;1.30;99.90
29341;DHT22;16337;59.536;13.468;2023-04-06T08:34:03;1.30;99.90
29341;DHT22;16337;59.536;13.468;2023-04-06T08:36:29;1.20;99.90
29341;DHT22;16337;59.536;13.468;2023-04-06T08:38:54;1.30;99.90
29341;DHT22;16337;59.536;13.468;2023-04-06T08:41:20;1.30;99.90
29341;DHT22;16337;59.536;13.468;2023-04-06T08:43:49;1.30;99.90
29341;DHT22;16337;59.536;13.468;2023-04-06T08:46:15;1.20;99.90
29341;DHT22;16337;59.536;13.468;2023-04-06T08:48:45;1.20;99.90
29341;DHT22;16337;59.536;13.468;2023-04-06T08:51:15;1.30;99.90
29341;DHT22;16337;59.536;13.468;2023-04-06T08:53:41;1.30;99.90
29341;DHT22;16337;59.536;13.468;2023-04-06T08:56:07;1.30;99.90
29341;DHT22;16337;59.536;13.468;2023-04-06T08:58:37;1.40;99.90
29341;DHT22;16337;59.536;13.468;2023-04-06T09:01:09;1.60;99.90
29341;DHT22;16337;59.536;13.468;2023-04-06T09:03:38;1.60;99.90
29341;DHT22;16337;59.536;13.468;2023-04-06T09:06:08;1.60;99.90
29341;DHT22;16337;59.536;13.468;2023-04-06T09:08:37;1.60;99.90
29341;DHT22;16337;59.536;13.468;2023-04-06T09:11:04;1.60;99.90
29341;DHT22;16337;59.536;13.468;2023-04-06T09:13:30;1.60;99.90
29341;DHT22;16337;59.536;13.468;2023-04-06T09:16:04;1.80;99.90
29341;DHT22;16337;59.536;13.468;2023-04-06T09:18:31;1.70;99.90
29341;DHT22;16337;59.536;13.468;2023-04-06T09:21:02;1.70;99.90
29341;DHT22;16337;59.536;13.468;2023-04-06T09:23:28;1.70;99.90
29341;DHT22;16337;59.536;13.468;2023-04-06T09:26:07;1.70;99.90
29341;DHT22;16337;59.536;13.468;2023-04-06T09:28:53;1.70;99.90
29341;DHT22;16337;59.536;13.468;2023-04-06T09:31:30;1.60;99.90
29341;DHT22;16337;59.536;13.468;2023-04-06T09:33:58;1.70;99.90
29341;DHT22;16337;59.536;13.468;2023-04-06T09:36:32;1.80;99.90
29341;DHT22;16337;59.536;13.468;2023-04-06T09:39:00;2.00;99.90
29341;DHT22;16337;59.536;13.468;2023-04-06T09:41:34;2.10;99.90
29341;DHT22;16337;59.536;13.468;2023-04-06T09:44:10;2.20;99.90
29341;DHT22;16337;59.536;13.468;2023-04-06T09:46:41;2.40;99.90
29341;DHT22;16337;59.536;13.468;2023-04-06T09:49:11;2.40;99.90
29341;DHT22;16337;59.536;13.468;2023-04-06T09:51:40;2.40;99.90
29341;DHT22;16337;59.536;13.468;2023-04-06T09:54:07;2.50;99.90
29341;DHT22;16337;59.536;13.468;2023-04-06T09:56:46;2.50;99.90
29341;DHT22;16337;59.536;13.468;2023-04-06T09:59:22;2.50;99.90
29341;DHT22;16337;59.536;13.468;2023-04-06T10:01:51;2.50;99.90
29341;DHT22;16337;59.536;13.468;2023-04-06T10:06:58;2.50;99.90
29341;DHT22;16337;59.536;13.468;2023-04-06T10:09:27;2.50;99.90
29341;DHT22;16337;59.536;13.468;2023-04-06T10:11:55;2.40;99.90
29341;DHT22;16337;59.536;13.468;2023-04-06T10:14:21;2.50;99.90
29341;DHT22;16337;59.536;13.468;2023-04-06T10:16:48;2.50;99.90
29341;DHT22;16337;59.536;13.468;2023-04-06T10:19:24;2.50;99.90
29341;DHT22;16337;59.536;13.468;2023-04-06T10:21:56;2.60;99.90
29341;DHT22;16337;59.536;13.468;2023-04-06T10:24:26;2.70;99.90
29341;DHT22;16337;59.536;13.468;2023-04-06T10:27:01;2.60;99.90
29341;DHT22;16337;59.536;13.468;2023-04-06T10:29:27;2.70;99.90
29341;DHT22;16337;59.536;13.468;2023-04-06T10:31:53;2.80;99.90
29341;DHT22;16337;59.536;13.468;2023-04-06T10:34:20;2.90;99.90
29341;DHT22;16337;59.536;13.468;2023-04-06T10:36:46;3.00;99.90
29341;DHT22;16337;59.536;13.468;2023-04-06T10:39:12;3.00;99.90
29341;DHT22;16337;59.536;13.468;2023-04-06T10:41:42;2.90;99.90
29341;DHT22;16337;59.536;13.468;2023-04-06T10:44:20;2.90;99.90
29341;DHT22;16337;59.536;13.468;2023-04-06T10:46:57;2.80;99.90
29341;DHT22;16337;59.536;13.468;2023-04-06T10:49:24;2.90;99.90
29341;DHT22;16337;59.536;13.468;2023-04-06T10:51:54;3.10;99.90
29341;DHT22;16337;59.536;13.468;2023-04-06T10:54:22;3.20;99.90
29341;DHT22;16337;59.536;13.468;2023-04-06T10:56:49;3.30;99.90
29341;DHT22;16337;59.536;13.468;2023-04-06T10:59:21;3.40;99.90
29341;DHT22;16337;59.536;13.468;2023-04-06T11:01:48;3.40;99.90
29341;DHT22;16337;59.536;13.468;2023-04-06T11:04:17;3.30;99.90
29341;DHT22;16337;59.536;13.468;2023-04-06T11:06:47;3.40;99.90
29341;DHT22;16337;59.536;13.468;2023-04-06T11:09:26;3.50;99.90
29341;DHT22;16337;59.536;13.468;2023-04-06T11:11:53;3.60;99.90
29341;DHT22;16337;59.536;13.468;2023-04-06T11:14:19;3.70;99.90
29341;DHT22;16337;59.536;13.468;2023-04-06T11:16:47;3.80;99.90
29341;DHT22;16337;59.536;13.468;2023-04-06T11:19:16;3.80;99.90
29341;DHT22;16337;59.536;13.468;2023-04-06T11:21:44;3.70;99.90
29341;DHT22;16337;59.536;13.468;2023-04-06T11:24:22;3.70;99.90
29341;DHT22;16337;59.536;13.468;2023-04-06T11:26:50;3.90;99.90
29341;DHT22;16337;59.536;13.468;2023-04-06T11:29:21;4.10;99.90
29341;DHT22;16337;59.536;13.468;2023-04-06T11:31:48;4.20;99.90
29341;DHT22;16337;59.536;13.468;2023-04-06T11:34:19;4.40;99.90
29341;DHT22;16337;59.536;13.468;2023-04-06T11:36:46;4.30;99.90
29341;DHT22;16337;59.536;13.468;2023-04-06T11:39:13;4.50;99.90
29341;DHT22;16337;59.536;13.468;2023-04-06T11:41:50;4.40;99.90
29341;DHT22;16337;59.536;13.468;2023-04-06T11:44:36;4.30;99.90
29341;DHT22;16337;59.536;13.468;2023-04-06T11:47:06;4.20;99.90
29341;DHT22;16337;59.536;13.468;2023-04-06T11:49:36;4.00;99.90
29341;DHT22;16337;59.536;13.468;2023-04-06T11:52:02;3.70;99.90
29341;DHT22;16337;59.536;13.468;2023-04-06T11:56:57;3.70;99.90
29341;DHT22;16337;59.536;13.468;2023-04-06T11:59:23;3.70;99.90
29341;DHT22;16337;59.536;13.468;2023-04-06T12:01:48;3.90;99.90
29341;DHT22;16337;59.536;13.468;2023-04-06T12:04:14;4.00;99.90
29341;DHT22;16337;59.536;13.468;2023-04-06T12:06:40;4.10;99.90
29341;DHT22;16337;59.536;13.468;2023-04-06T12:09:06;4.00;99.90
29341;DHT22;16337;59.536;13.468;2023-04-06T12:11:32;4.00;99.90
29341;DHT22;16337;59.536;13.468;2023-04-06T12:13:57;4.00;99.90
29341;DHT22;16337;59.536;13.468;2023-04-06T12:16:25;3.80;99.90
29341;DHT22;16337;59.536;13.468;2023-04-06T12:18:51;3.70;99.90
29341;DHT22;16337;59.536;13.468;2023-04-06T12:21:17;3.60;99.90
29341;DHT22;16337;59.536;13.468;2023-04-06T12:23:42;3.50;99.90
29341;DHT22;16337;59.536;13.468;2023-04-06T12:26:08;3.50;99.90
29341;DHT22;16337;59.536;13.468;2023-04-06T12:28:34;3.50;99.90
29341;DHT22;16337;59.536;13.468;2023-04-06T12:31:00;3.40;99.90
29341;DHT22;16337;59.536;13.468;2023-04-06T12:33:25;3.40;99.90
29341;DHT22;16337;59.536;13.468;2023-04-06T12:35:51;3.40;99.90
29341;DHT22;16337;59.536;13.468;2023-04-06T12:38:17;3.40;99.90
29341;DHT22;16337;59.536;13.468;2023-04-06T12:40:43;3.50;99.90
29341;DHT22;16337;59.536;13.468;2023-04-06T12:43:09;3.40;99.90
29341;DHT22;16337;59.536;13.468;2023-04-06T12:45:35;3.50;99.90
29341;DHT22;16337;59.536;13.468;2023-04-06T12:48:01;3.50;99.90
29341;DHT22;16337;59.536;13.468;2023-04-06T12:50:27;3.60;99.90
29341;DHT22;16337;59.536;13.468;2023-04-06T12:52:52;3.60;99.90
29341;DHT22;16337;59.536;13.468;2023-04-06T12:55:18;3.50;99.90
29341;DHT22;16337;59.536;13.468;2023-04-06T12:57:47;3.50;99.90
29341;DHT22;16337;59.536;13.468;2023-04-06T13:00:13;3.60;99.90
29341;DHT22;16337;59.536;13.468;2023-04-06T13:02:40;3.60;99.90
29341;DHT22;16337;59.536;13.468;2023-04-06T13:05:12;3.60;99.90
29341;DHT22;16337;59.536;13.468;2023-04-06T13:07:38;3.50;99.90
29341;DHT22;16337;59.536;13.468;2023-04-06T13:10:04;3.60;99.90
29341;DHT22;16337;59.536;13.468;2023-04-06T13:12:30;3.60;99.90
29341;DHT22;16337;59.536;13.468;2023-04-06T13:14:55;3.60;99.90
29341;DHT22;16337;59.536;13.468;2023-04-06T13:17:26;3.60;99.90
29341;DHT22;16337;59.536;13.468;2023-04-06T13:19:52;3.60;99.90
29341;DHT22;16337;59.536;13.468;2023-04-06T13:22:18;3.60;99.90
29341;DHT22;16337;59.536;13.468;2023-04-06T13:24:44;3.60;99.90
29341;DHT22;16337;59.536;13.468;2023-04-06T13:27:09;3.70;99.90
29341;DHT22;16337;59.536;13.468;2023-04-06T13:29:36;3.70;99.90
29341;DHT22;16337;59.536;13.468;2023-04-06T13:32:02;3.70;99.90
29341;DHT22;16337;59.536;13.468;2023-04-06T13:34:28;3.70;99.90
29341;DHT22;16337;59.536;13.468;2023-04-06T13:36:54;3.80;99.90
29341;DHT22;16337;59.536;13.468;2023-04-06T13:39:20;3.90;99.90
29341;DHT22;16337;59.536;13.468;2023-04-06T13:41:46;4.00;99.90
29341;DHT22;16337;59.536;13.468;2023-04-06T13:44:11;4.10;99.90
29341;DHT22;16337;59.536;13.468;2023-04-06T13:46:37;4.10;99.90
29341;DHT22;16337;59.536;13.468;2023-04-06T13:49:03;4.00;99.90
29341;DHT22;16337;59.536;13.468;2023-04-06T13:51:29;3.90;99.90
29341;DHT22;16337;59.536;13.468;2023-04-06T13:53:54;3.80;99.90
29341;DHT22;16337;59.536;13.468;2023-04-06T13:56:20;3.80;99.90
29341;DHT22;16337;59.536;13.468;2023-04-06T13:58:46;3.80;99.90
29341;DHT22;16337;59.536;13.468;2023-04-06T14:01:12;3.80;99.90
29341;DHT22;16337;59.536;13.468;2023-04-06T14:03:37;3.80;99.90
29341;DHT22;16337;59.536;13.468;2023-04-06T14:06:13;3.80;99.90
29341;DHT22;16337;59.536;13.468;2023-04-06T14:08:39;3.90;99.90
29341;DHT22;16337;59.536;13.468;2023-04-06T14:11:13;3.90;99.90
29341;DHT22;16337;59.536;13.468;2023-04-06T14:13:39;3.90;99.90
29341;DHT22;16337;59.536;13.468;2023-04-06T14:16:06;3.80;99.90
29341;DHT22;16337;59.536;13.468;2023-04-06T14:18:32;3.80;99.90
29341;DHT22;16337;59.536;13.468;2023-04-06T14:21:00;3.80;99.90
29341;DHT22;16337;59.536;13.468;2023-04-06T14:23:27;3.80;99.90
29341;DHT22;16337;59.536;13.468;2023-04-06T14:26:07;3.90;99.90
29341;DHT22;16337;59.536;13.468;2023-04-06T14:28:34;3.90;99.90
29341;DHT22;16337;59.536;13.468;2023-04-06T14:31:02;3.80;99.90
29341;DHT22;16337;59.536;13.468;2023-04-06T14:33:34;3.80;99.90
29341;DHT22;16337;59.536;13.468;2023-04-06T14:36:03;3.90;99.90
29341;DHT22;16337;59.536;13.468;2023-04-06T14:38:28;3.90;99.90
29341;DHT22;16337;59.536;13.468;2023-04-06T14:40:54;3.90;99.90
29341;DHT22;16337;59.536;13.468;2023-04-06T14:43:21;3.90;99.90
29341;DHT22;16337;59.536;13.468;2023-04-06T14:45:47;3.90;99.90
29341;DHT22;16337;59.536;13.468;2023-04-06T14:48:13;3.90;99.90
29341;DHT22;16337;59.536;13.468;2023-04-06T14:50:40;3.90;99.90
29341;DHT22;16337;59.536;13.468;2023-04-06T14:53:06;3.90;99.90
29341;DHT22;16337;59.536;13.468;2023-04-06T14:55:38;3.90;99.90
29341;DHT22;16337;59.536;13.468;2023-04-06T14:58:04;3.90;99.90
29341;DHT22;16337;59.536;13.468;2023-04-06T15:00:30;3.90;99.90
29341;DHT22;16337;59.536;13.468;2023-04-06T15:02:56;3.90;99.90
29341;DHT22;16337;59.536;13.468;2023-04-06T15:05:21;3.90;99.90
29341;DHT22;16337;59.536;13.468;2023-04-06T15:07:47;3.90;99.90
29341;DHT22;16337;59.536;13.468;2023-04-06T15:10:15;3.90;99.90
29341;DHT22;16337;59.536;13.468;2023-04-06T15:12:41;3.90;99.90
29341;DHT22;16337;59.536;13.468;2023-04-06T15:15:07;3.90;99.90
29341;DHT22;16337;59.536;13.468;2023-04-06T15:17:33;3.80;99.90
29341;DHT22;16337;59.536;13.468;2023-04-06T15:19:58;3.70;99.90
29341;DHT22;16337;59.536;13.468;2023-04-06T15:22:24;3.70;99.90
29341;DHT22;16337;59.536;13.468;2023-04-06T15:24:50;3.80;99.90
29341;DHT22;16337;59.536;13.468;2023-04-06T15:27:16;3.80;99.90
29341;DHT22;16337;59.536;13.468;2023-04-06T15:29:42;3.80;99.90
29341;DHT22;16337;59.536;13.468;2023-04-06T15:32:07;3.80;99.90
29341;DHT22;16337;59.536;13.468;2023-04-06T15:34:36;3.80;99.90
29341;DHT22;16337;59.536;13.468;2023-04-06T15:37:01;3.80;99.90
29341;DHT22;16337;59.536;13.468;2023-04-06T15:39:29;3.70;99.90
29341;DHT22;16337;59.536;13.468;2023-04-06T15:41:54;3.80;99.90
29341;DHT22;16337;59.536;13.468;2023-04-06T15:44:22;3.80;99.90
29341;DHT22;16337;59.536;13.468;2023-04-06T15:46:47;3.90;99.90